Airfield :
LOGIN :

Register | Disclaimer

   EN    FR    IT 

 










Legend :    VFR   Marginal VFR   IFR   Intensive IFR   Very Intensive IFR
Visi :
Ceiling :
>= 8 km
>= 3000ft
5 to 8 km
1000 to 3000 ft
1500m to 5 km
500 to 1000 ft
800 to 1500m
200 to 500 ft
< 800m
< 200 ft
Symbols :   Thunderstorms  Fog  Heavy snow  Heavy precipitations  Wind > 20 kt
SIGMETs :     Misc.  Thunderstorms  Icing  Turbulence  Mountain Waves  Volcanic Ashes







- Airport Elevation : 1455 ft


ETIH - Hohenfels Army Air Field

CURRENT METAR :
  • 211540Z AUTO 24003KT 8000 BR BKN007 OVC016 07/07 A2995 RMK AO2 RAE1458RAB16E40 SLP155 $

EXPIRED METARs :
  • 211516Z AUTO 23004KT 6000 -RA BR OVC008 07/07 A2995 RMK AO2 RAE1458RAB16 SLP155 $
  • 211458Z AUTO 22005KT 9999 OVC008 07/07 A2995 RMK AO2 RAE58 SLP155 $
  • 211428Z AUTO 25005KT 9999 -RA OVC007 07/07 A2996 RMK AO2 RAE23RAB28 SLP159 $
  • 211423Z AUTO 23006KT 9999 OVC007 07/07 A2996 RMK AO2 RAE23 SLP159 $
  • 211400Z AUTO 25004KT 6000 -RA BR BKN007 OVC011 07/07 A2996 RMK AO2 CIG 007V009 SLP159 $
  • 211356Z AUTO 25004KT 8000 -RA BR OVC009 07/07 A2996 RMK AO2 RAB36 SLP159 P0000 T00700069 $
  • 211336Z AUTO 27005KT 9999 -RA OVC009 07/07 A2996 RMK AO2 RAB36 SLP159 $
  • 211318Z AUTO 26005KT 9999 OVC009 07/07 A2996 RMK AO2 SLP159 $
  • 211256Z AUTO 24005KT 9999 OVC010 07/07 A2996 RMK AO2 RAE53 SLP159 P0001 T00710070 $

Expired Forecast.
No reported NOTAMs for that airfield.



MET'MAP, your aeronautical weather chart ! - Copyright ORBIFLY December 2007 - Disclaimer

ORBIFLY MET'MAP TEAM :

Programming & Development : Alexandra Zaïnal
Concept & Development : Baudouin d'Aumeries
Co-Development & Prog : Marc-Olivier Méhu
Technical & hardware support : Manuel Goepfert

Contact : metmap@orbifly.com




SOURCES & CREDITS :

   NOAA